createdAt,value
2023-03-21T05:15:08.307Z,95.49
2023-03-21T05:16:08.277Z,95.49
2023-03-21T05:17:08.279Z,95.59
2023-03-21T05:18:08.267Z,95.59
2023-03-21T05:19:08.249Z,95.59
2023-03-21T05:20:08.226Z,95.49
2023-03-21T05:21:08.231Z,95.49
2023-03-21T05:22:08.217Z,95.49
2023-03-21T05:23:08.210Z,95.49
2023-03-21T05:24:08.177Z,95.49
2023-03-21T05:25:08.166Z,95.49
2023-03-21T05:26:08.171Z,95.49
2023-03-21T05:27:08.136Z,95.49
2023-03-21T05:28:08.145Z,95.59
2023-03-21T05:29:08.114Z,95.49
2023-03-21T05:30:08.097Z,95.39
2023-03-21T05:31:08.188Z,95.39
2023-03-21T05:32:08.073Z,95.49
2023-03-21T05:33:08.078Z,95.39
2023-03-21T05:34:08.051Z,95.39
2023-03-21T05:35:08.047Z,95.39
2023-03-21T05:36:08.043Z,95.28
2023-03-21T05:37:08.015Z,95.28
2023-03-21T05:38:08.004Z,95.28
2023-03-21T05:39:07.986Z,95.39
2023-03-21T05:40:07.966Z,95.39
2023-03-21T05:41:07.957Z,95.39
2023-03-21T05:42:07.944Z,95.28
2023-03-21T05:43:07.957Z,95.28
2023-03-21T05:44:07.938Z,95.28
2023-03-21T05:45:07.912Z,95.24
2023-03-21T05:46:07.936Z,95.28
2023-03-21T05:47:07.884Z,95.24
2023-03-21T05:48:07.967Z,95.24
2023-03-21T05:49:07.862Z,95.24
2023-03-21T05:50:07.850Z,95.34
2023-03-21T05:51:07.835Z,95.34
2023-03-21T05:52:07.813Z,95.54
2023-03-21T05:53:07.812Z,95.75
2023-03-21T05:54:07.793Z,95.95
2023-03-21T05:55:07.785Z,96.16
2023-03-21T05:56:07.762Z,96.41
2023-03-21T05:57:07.753Z,96.62
2023-03-21T05:58:07.734Z,96.82
2023-03-21T05:59:07.732Z,96.92
2023-03-21T06:00:07.705Z,97.13
2023-03-21T06:01:07.702Z,97.44
2023-03-21T06:02:07.683Z,97.85
2023-03-21T06:03:07.676Z,98.16
2023-03-21T06:04:07.688Z,98.46
2023-03-21T06:05:07.659Z,98.57
2023-03-21T06:06:07.635Z,98.77
2023-03-21T06:07:07.623Z,99.08
2023-03-21T06:08:07.618Z,99.28
2023-03-21T06:09:07.604Z,99.38
2023-03-21T06:10:07.590Z,99.59
2023-03-21T06:11:07.573Z,99.95
2023-03-21T06:12:07.553Z,99.99
2023-03-21T06:13:07.550Z,99.99
2023-03-21T06:14:07.541Z,99.99
2023-03-21T06:15:07.525Z,99.99
2023-03-21T06:16:07.544Z,99.99
2023-03-21T06:17:07.493Z,99.99
2023-03-21T06:18:07.471Z,99.99
2023-03-21T06:19:07.481Z,99.99
2023-03-21T06:20:07.459Z,99.99
2023-03-21T06:21:07.443Z,99.99
2023-03-21T06:22:07.436Z,99.99
2023-03-21T06:23:07.414Z,99.99
2023-03-21T06:24:07.411Z,99.99
2023-03-21T06:25:07.403Z,99.99
2023-03-21T06:26:07.375Z,99.99
2023-03-21T06:27:07.370Z,99.99
2023-03-21T06:28:07.341Z,99.99
2023-03-21T06:29:07.352Z,99.99
2023-03-21T06:30:07.320Z,99.99
2023-03-21T06:31:07.380Z,99.99
2023-03-21T06:32:07.295Z,99.99
2023-03-21T06:33:07.280Z,99.99
2023-03-21T06:34:07.286Z,99.99
2023-03-21T06:35:07.260Z,99.99
2023-03-21T06:36:07.276Z,99.99
2023-03-21T06:37:07.251Z,99.99
2023-03-21T06:38:07.223Z,99.99
2023-03-21T06:39:07.219Z,99.99
2023-03-21T06:40:07.190Z,99.99
2023-03-21T06:41:07.182Z,99.99
2023-03-21T06:42:07.158Z,99.99
2023-03-21T06:43:07.151Z,99.99
2023-03-21T06:44:07.148Z,99.99
2023-03-21T06:45:07.129Z,99.99
2023-03-21T06:46:07.116Z,99.99
2023-03-21T06:47:07.177Z,99.99
2023-03-21T06:48:09.296Z,99.99
2023-03-21T06:49:07.087Z,99.99
2023-03-21T06:50:07.094Z,99.99
2023-03-21T06:51:07.050Z,99.99
2023-03-21T06:52:07.046Z,99.99
2023-03-21T06:53:07.033Z,99.99
2023-03-21T06:54:07.006Z,99.99
2023-03-21T06:55:07.007Z,99.99
2023-03-21T06:56:06.977Z,99.99
2023-03-21T06:57:06.977Z,99.99
2023-03-21T06:58:06.964Z,99.99
2023-03-21T06:59:06.945Z,99.99
2023-03-21T07:00:06.936Z,99.99
2023-03-21T07:01:06.977Z,99.99
2023-03-21T07:02:06.965Z,99.99
2023-03-21T07:03:06.897Z,99.99
2023-03-21T07:04:06.896Z,99.99
2023-03-21T07:05:06.929Z,99.99
2023-03-21T07:06:06.855Z,99.99
2023-03-21T07:07:06.848Z,99.99
2023-03-21T07:08:06.826Z,99.99
2023-03-21T07:09:06.840Z,99.99
2023-03-21T07:10:06.817Z,99.99
2023-03-21T07:11:06.809Z,99.99
2023-03-21T07:12:06.774Z,99.99
2023-03-21T07:13:06.768Z,99.99
2023-03-21T07:14:06.746Z,99.99
2023-03-21T07:15:06.748Z,99.99
2023-03-21T07:16:06.764Z,99.99
2023-03-21T07:17:06.707Z,99.99
2023-03-21T07:18:06.695Z,99.99
2023-03-21T07:19:06.687Z,99.99
2023-03-21T07:20:06.687Z,99.99
2023-03-21T07:21:06.656Z,99.99
2023-03-21T07:22:06.668Z,99.99
2023-03-21T07:23:06.653Z,99.99
2023-03-21T07:24:06.639Z,99.99
2023-03-21T07:25:06.685Z,99.99
2023-03-21T07:26:06.585Z,99.99
2023-03-21T07:27:06.590Z,99.99
2023-03-21T07:28:06.565Z,99.99
2023-03-21T07:29:06.565Z,99.99
2023-03-21T07:30:06.557Z,99.99
2023-03-21T07:31:06.542Z,99.99
2023-03-21T07:32:06.516Z,99.99
2023-03-21T07:33:06.504Z,99.99
2023-03-21T07:34:06.494Z,99.99
2023-03-21T07:35:06.497Z,99.99
2023-03-21T07:36:06.487Z,99.99
2023-03-21T07:37:06.458Z,99.99
2023-03-21T07:38:06.434Z,99.99
2023-03-21T07:39:06.434Z,99.99
2023-03-21T07:40:06.443Z,99.99
2023-03-21T07:41:06.401Z,99.99
2023-03-21T07:42:06.381Z,99.99
2023-03-21T07:43:06.388Z,99.99
2023-03-21T07:45:06.352Z,99.99
2023-03-21T07:46:06.381Z,99.99
2023-03-21T07:47:06.322Z,99.99
2023-03-21T07:48:06.346Z,99.99
2023-03-21T07:49:06.307Z,99.99
2023-03-21T07:50:06.288Z,99.99
2023-03-21T07:51:06.289Z,99.99
2023-03-21T07:52:06.250Z,99.99
2023-03-21T07:53:06.240Z,99.99
2023-03-21T07:54:06.260Z,99.99
2023-03-21T07:55:06.210Z,99.99
2023-03-21T07:56:06.209Z,99.99
2023-03-21T07:57:06.198Z,99.99
2023-03-21T07:58:06.177Z,99.99
2023-03-21T07:59:06.170Z,99.99
2023-03-21T08:00:06.154Z,99.99
2023-03-21T08:01:06.149Z,99.99
2023-03-21T08:02:06.190Z,99.99
2023-03-21T08:03:06.129Z,99.99
2023-03-21T08:04:06.112Z,99.99
2023-03-21T08:05:06.080Z,99.99
2023-03-21T08:06:06.088Z,99.99
2023-03-21T08:07:06.058Z,99.99
2023-03-21T08:08:06.062Z,99.99
2023-03-21T08:09:06.032Z,99.99
2023-03-21T08:10:06.034Z,99.99
2023-03-21T08:11:06.025Z,99.99
2023-03-21T08:12:05.999Z,99.99
2023-03-21T08:13:05.994Z,99.99
2023-03-21T08:14:05.976Z,99.99
2023-03-21T08:15:05.957Z,99.99
2023-03-21T08:16:05.952Z,99.99
2023-03-21T08:17:05.961Z,99.99
2023-03-21T08:18:05.929Z,99.99
2023-03-21T08:19:05.906Z,99.99
2023-03-21T08:20:05.898Z,99.99
2023-03-21T08:21:06.600Z,99.99
2023-03-21T08:22:05.868Z,99.99
2023-03-21T08:23:05.856Z,99.99
2023-03-21T08:24:05.838Z,99.99
2023-03-21T08:25:05.827Z,99.99
2023-03-21T08:26:05.827Z,99.99
2023-03-21T08:27:05.851Z,99.99
2023-03-21T08:28:05.827Z,99.99
2023-03-21T08:29:05.776Z,99.99
2023-03-21T08:30:05.768Z,99.99
2023-03-21T08:31:05.811Z,99.99
2023-03-21T08:32:05.743Z,99.99
2023-03-21T08:33:05.742Z,99.99
2023-03-21T08:34:05.722Z,99.99
2023-03-21T08:35:05.697Z,99.99
2023-03-21T08:36:05.750Z,99.99
2023-03-21T08:37:05.677Z,99.99
2023-03-21T08:38:05.664Z,99.99
2023-03-21T08:39:05.678Z,99.99
2023-03-21T08:40:05.663Z,99.99
2023-03-21T08:41:05.646Z,99.99
2023-03-21T08:42:05.614Z,99.99
2023-03-21T08:43:05.605Z,99.99
2023-03-21T08:44:05.584Z,99.99
2023-03-21T08:45:05.574Z,99.99
2023-03-21T08:46:05.583Z,99.99
2023-03-21T08:47:05.564Z,99.99
2023-03-21T08:48:05.637Z,99.99
2023-03-21T08:49:05.537Z,99.99
2023-03-21T08:50:05.513Z,99.99
2023-03-21T08:51:05.495Z,99.99
2023-03-21T08:52:05.494Z,99.99
2023-03-21T08:53:05.475Z,99.99
2023-03-21T08:54:05.471Z,99.99
2023-03-21T08:55:05.455Z,99.99
2023-03-21T08:56:05.434Z,99.99
2023-03-21T08:57:05.442Z,99.99
2023-03-21T08:58:05.404Z,99.99
2023-03-21T08:59:05.402Z,99.99
2023-03-21T09:00:05.384Z,99.99
2023-03-21T09:01:05.377Z,99.99
2023-03-21T09:02:05.445Z,99.99
2023-03-21T09:03:05.361Z,99.99
2023-03-21T09:04:05.335Z,99.99
2023-03-21T09:05:05.322Z,99.99
2023-03-21T09:06:05.303Z,99.99
2023-03-21T09:07:05.302Z,99.99
2023-03-21T09:08:05.282Z,99.99
2023-03-21T09:09:05.273Z,99.99
2023-03-21T09:10:22.084Z,99.99
2023-03-21T09:11:06.243Z,99.99
2023-03-21T09:12:05.242Z,99.99
2023-03-21T09:13:05.239Z,99.99
2023-03-21T09:14:05.204Z,99.99
2023-03-21T09:15:05.216Z,99.99
2023-03-21T09:16:05.387Z,99.99
2023-03-21T09:17:05.192Z,99.99
2023-03-21T09:18:05.153Z,99.99
2023-03-21T09:19:05.143Z,99.99
2023-03-21T09:20:05.177Z,99.99
2023-03-21T09:21:05.114Z,99.99
2023-03-21T09:22:05.121Z,99.99
2023-03-21T09:23:05.102Z,99.99
2023-03-21T09:24:05.071Z,99.99
2023-03-21T09:25:05.067Z,99.99
2023-03-21T09:26:05.091Z,99.99
2023-03-21T09:27:05.082Z,99.99
2023-03-21T09:28:05.026Z,99.99
2023-03-21T09:29:05.011Z,99.99
2023-03-21T09:30:12.058Z,99.99
2023-03-21T09:31:05.060Z,99.99
2023-03-21T09:32:04.999Z,99.99
2023-03-21T09:33:04.968Z,99.99
2023-03-21T09:34:04.953Z,99.99
2023-03-21T09:35:04.948Z,99.99
2023-03-21T09:36:04.966Z,99.99
2023-03-21T09:37:04.927Z,99.99
2023-03-21T09:38:04.895Z,99.99
2023-03-21T09:39:04.889Z,99.99
2023-03-21T09:40:04.876Z,99.99
2023-03-21T09:41:04.870Z,99.99
2023-03-21T09:42:04.863Z,99.99
2023-03-21T09:43:04.836Z,99.99
2023-03-21T09:44:04.825Z,99.99
2023-03-21T09:45:04.817Z,99.99
2023-03-21T09:46:04.785Z,99.99
2023-03-21T09:47:04.825Z,99.99
2023-03-21T09:48:04.771Z,99.99
2023-03-21T09:49:04.754Z,99.99
2023-03-21T09:50:14.154Z,99.99
2023-03-21T09:51:05.713Z,99.99
2023-03-21T09:52:04.713Z,99.99
2023-03-21T09:53:04.693Z,99.99
2023-03-21T09:54:04.675Z,99.99
2023-03-21T09:55:04.672Z,99.99
2023-03-21T09:56:04.652Z,99.99
2023-03-21T09:57:05.343Z,99.99
2023-03-21T09:58:04.623Z,99.99
2023-03-21T09:59:04.612Z,99.99
2023-03-21T10:00:04.602Z,99.99
2023-03-21T10:01:04.670Z,99.99
2023-03-21T10:02:04.599Z,99.99
2023-03-21T10:03:04.561Z,99.99
2023-03-21T10:04:04.638Z,99.99
2023-03-21T10:05:04.536Z,99.99
2023-03-21T10:06:04.520Z,99.99
2023-03-21T10:07:04.518Z,99.99
2023-03-21T10:08:04.529Z,99.99
2023-03-21T10:09:04.490Z,99.99
2023-03-21T10:10:04.485Z,99.99
2023-03-21T10:11:04.462Z,99.99
2023-03-21T10:12:04.452Z,99.99
2023-03-21T10:13:04.429Z,99.99
2023-03-21T10:14:04.471Z,99.99
2023-03-21T10:15:04.410Z,99.99
2023-03-21T10:16:04.431Z,99.99
2023-03-21T10:17:04.389Z,99.99
2023-03-21T10:18:04.361Z,99.99
2023-03-21T10:19:04.349Z,99.99
2023-03-21T10:20:04.329Z,99.99
2023-03-21T10:21:04.325Z,99.99
2023-03-21T10:22:04.544Z,99.99
2023-03-21T10:23:04.299Z,99.99
2023-03-21T10:24:04.278Z,99.99
2023-03-21T10:25:04.271Z,99.99
2023-03-21T10:26:04.256Z,99.99
2023-03-21T10:27:04.289Z,99.99
2023-03-21T10:28:04.426Z,99.99
2023-03-21T10:29:04.233Z,99.99
2023-03-21T10:30:04.204Z,99.99
2023-03-21T10:31:04.199Z,99.99
2023-03-21T10:32:04.276Z,99.99
2023-03-21T10:33:04.222Z,99.99
2023-03-21T10:34:04.157Z,99.99
2023-03-21T10:35:04.145Z,99.99
2023-03-21T10:36:04.239Z,99.99
2023-03-21T10:37:04.128Z,99.99
2023-03-21T10:38:04.105Z,99.99
2023-03-21T10:39:04.094Z,99.99
2023-03-21T10:40:04.064Z,99.99
2023-03-21T10:41:04.056Z,99.99
2023-03-21T10:42:04.047Z,99.99
2023-03-21T10:43:04.036Z,99.99
2023-03-21T10:44:04.014Z,99.99
2023-03-21T10:45:04.006Z,99.99
2023-03-21T10:46:04.082Z,99.99
2023-03-21T10:47:04.244Z,99.99
2023-03-21T10:48:04.204Z,99.99
2023-03-21T10:49:03.983Z,99.99
2023-03-21T10:50:08.836Z,99.99
2023-03-21T10:51:04.923Z,99.99
2023-03-21T10:52:03.940Z,99.99
2023-03-21T10:53:03.907Z,99.99
2023-03-21T10:54:03.891Z,99.99
2023-03-21T10:55:03.866Z,99.99
2023-03-21T10:56:03.853Z,99.99
2023-03-21T10:57:03.842Z,99.99
2023-03-21T10:58:03.850Z,99.99
2023-03-21T10:59:03.817Z,99.99
2023-03-21T11:00:03.794Z,99.99
2023-03-21T11:01:03.859Z,99.99
2023-03-21T11:02:03.800Z,99.99
2023-03-21T11:03:03.791Z,99.99
2023-03-21T11:04:03.741Z,99.99
2023-03-21T11:05:03.744Z,99.99
2023-03-21T11:06:03.720Z,99.99
2023-03-21T11:07:03.714Z,99.99
2023-03-21T11:08:03.703Z,99.99
2023-03-21T11:09:03.685Z,99.99
2023-03-21T11:10:03.662Z,99.99
2023-03-21T11:11:03.656Z,99.73
2023-03-21T11:12:03.640Z,99.37
2023-03-21T11:13:03.636Z,99.22
2023-03-21T11:14:03.605Z,98.81
2023-03-21T11:15:03.594Z,98.81
2023-03-21T11:16:03.584Z,98.91
2023-03-21T11:17:03.616Z,98.30
2023-03-21T11:18:03.568Z,98.50
2023-03-21T11:19:03.572Z,98.40
2023-03-21T11:20:03.527Z,98.40
2023-03-21T11:21:03.523Z,98.40
2023-03-21T11:22:03.507Z,97.99
2023-03-21T11:23:03.519Z,98.30
2023-03-21T11:24:03.492Z,97.99
2023-03-21T11:25:03.510Z,98.25
2023-03-21T11:26:03.459Z,98.10
2023-03-21T11:27:03.445Z,98.36
2023-03-21T11:28:03.443Z,98.15
2023-03-21T11:29:03.418Z,98.05
2023-03-21T11:30:03.395Z,98.25
2023-03-21T11:31:03.534Z,97.85
2023-03-21T11:32:03.376Z,97.64
2023-03-21T11:33:03.389Z,98.05
2023-03-21T11:34:03.346Z,97.64
2023-03-21T11:35:03.337Z,97.95
2023-03-21T11:36:03.357Z,98.50
2023-03-21T11:37:03.311Z,98.81
2023-03-21T11:38:03.307Z,99.32
2023-03-21T11:39:03.286Z,99.32
2023-03-21T11:40:03.275Z,99.02
2023-03-21T11:41:03.272Z,99.22
2023-03-21T11:42:03.243Z,99.32
2023-03-21T11:43:03.255Z,99.43
2023-03-21T11:44:03.231Z,99.63
2023-03-21T11:45:03.222Z,99.73
2023-03-21T11:46:03.244Z,99.52
2023-03-21T11:47:03.193Z,99.63
2023-03-21T11:48:03.230Z,99.93
2023-03-21T11:49:03.153Z,99.99
2023-03-21T11:50:05.294Z,99.99
2023-03-21T11:51:03.145Z,99.99
2023-03-21T11:52:03.134Z,99.99
2023-03-21T11:53:03.113Z,99.99
2023-03-21T11:54:03.100Z,99.99
2023-03-21T11:55:03.074Z,99.99
2023-03-21T11:56:03.252Z,99.99
2023-03-21T11:57:03.043Z,99.99
2023-03-21T11:58:13.947Z,99.99
2023-03-21T11:59:04.082Z,99.99
2023-03-21T12:00:03.003Z,99.99
2023-03-21T12:01:03.001Z,99.99
2023-03-21T12:02:02.984Z,99.99
2023-03-21T12:03:03.077Z,99.99
2023-03-21T12:04:03.058Z,99.99
2023-03-21T12:05:02.940Z,99.99
2023-03-21T12:06:02.935Z,99.99
2023-03-21T12:07:02.910Z,99.99
2023-03-21T12:08:02.901Z,99.99
2023-03-21T12:09:02.883Z,99.99
2023-03-21T12:10:02.862Z,99.99
2023-03-21T12:11:02.860Z,99.95
2023-03-21T12:12:02.846Z,99.64
2023-03-21T12:13:02.841Z,99.39
2023-03-21T12:14:02.816Z,98.21
2023-03-21T12:15:02.811Z,98.36
2023-03-21T12:16:02.844Z,98.06
2023-03-21T12:17:02.795Z,98.36
2023-03-21T12:18:02.780Z,98.36
2023-03-21T12:19:02.750Z,97.65
2023-03-21T12:20:02.778Z,97.91
2023-03-21T12:21:02.733Z,98.93
2023-03-21T12:22:02.727Z,97.81
2023-03-21T12:23:02.758Z,97.91
2023-03-21T12:24:02.699Z,96.89
2023-03-21T12:25:02.686Z,96.95
2023-03-21T12:26:02.660Z,95.16
2023-03-21T12:27:02.648Z,93.47
2023-03-21T12:28:06.987Z,92.96
2023-03-21T12:29:02.636Z,93.88
2023-03-21T12:30:02.606Z,94.95
2023-03-21T12:31:02.621Z,94.14
2023-03-21T12:32:02.576Z,93.47
2023-03-21T12:33:02.570Z,93.73
2023-03-21T12:34:02.570Z,94.45
2023-03-21T12:35:02.545Z,95.16
2023-03-21T12:36:02.541Z,93.73
2023-03-21T12:37:02.526Z,93.32
2023-03-21T12:38:02.497Z,92.71
2023-03-21T12:39:02.502Z,92.81
2023-03-21T12:40:02.477Z,93.28
2023-03-21T12:41:02.469Z,91.96
2023-03-21T12:42:02.452Z,91.96
2023-03-21T12:43:02.434Z,92.05
2023-03-21T12:44:02.440Z,91.09
2023-03-21T12:45:06.302Z,90.89
2023-03-21T12:46:03.398Z,90.89
2023-03-21T12:47:02.513Z,90.69
2023-03-21T12:48:02.425Z,91.09
2023-03-21T12:49:02.603Z,90.38
2023-03-21T12:50:02.344Z,91.03
2023-03-21T12:51:02.334Z,91.35
2023-03-21T12:52:02.313Z,91.40
2023-03-21T12:53:02.303Z,91.91
2023-03-21T12:54:02.304Z,91.65
2023-03-21T12:55:02.282Z,92.36
2023-03-21T12:56:02.352Z,91.85
2023-03-21T12:57:02.261Z,92.46
2023-03-21T12:58:02.239Z,92.16
2023-03-21T12:59:02.239Z,92.16
2023-03-21T13:00:02.208Z,91.55
2023-03-21T13:01:02.219Z,91.55
2023-03-21T13:02:02.317Z,91.55
2023-03-21T13:03:02.183Z,91.55
2023-03-21T13:04:02.211Z,91.35
2023-03-21T13:05:02.151Z,91.35
2023-03-21T13:06:02.131Z,91.44
2023-03-21T13:07:02.122Z,92.26
2023-03-21T13:08:02.103Z,91.03
2023-03-21T13:09:02.114Z,91.61
2023-03-21T13:10:02.147Z,90.99
2023-03-21T13:11:02.070Z,90.99
2023-03-21T13:12:02.051Z,90.73
2023-03-21T13:13:02.040Z,91.55
2023-03-21T13:14:02.041Z,92.16
2023-03-21T13:15:02.586Z,91.71
2023-03-21T13:16:02.035Z,91.55
2023-03-21T13:17:01.994Z,91.55
2023-03-21T13:18:01.986Z,91.85
2023-03-21T13:19:02.003Z,91.24
2023-03-21T13:20:01.964Z,91.44
2023-03-21T13:21:01.937Z,91.14
2023-03-21T13:22:01.949Z,90.47
2023-03-21T13:23:01.928Z,91.03
2023-03-21T13:24:01.925Z,91.85
2023-03-21T13:25:01.886Z,91.44
2023-03-21T13:26:01.869Z,91.85
2023-03-21T13:27:01.860Z,92.16
2023-03-21T13:28:01.842Z,92.16
2023-03-21T13:29:01.838Z,91.55
2023-03-21T13:30:01.891Z,91.44
2023-03-21T13:31:01.808Z,91.24
2023-03-21T13:32:01.869Z,90.99
2023-03-21T13:33:01.796Z,90.99
2023-03-21T13:34:01.780Z,90.99
2023-03-21T13:35:01.760Z,90.59
2023-03-21T13:36:01.758Z,90.38
2023-03-21T13:37:01.731Z,90.28
2023-03-21T13:38:01.723Z,90.28
2023-03-21T13:39:01.700Z,90.08
2023-03-21T13:40:01.709Z,89.77
2023-03-21T13:41:01.680Z,89.87
2023-03-21T13:42:01.661Z,89.67
2023-03-21T13:43:01.663Z,88.96
2023-03-21T13:44:01.644Z,89.47
2023-03-21T13:45:01.640Z,88.34
2023-03-21T13:46:01.642Z,88.85
2023-03-21T13:47:01.703Z,88.96
2023-03-21T13:48:01.619Z,88.81
2023-03-21T13:49:01.594Z,89.01
2023-03-21T13:50:01.571Z,89.22
2023-03-21T13:51:01.557Z,87.79
2023-03-21T13:52:01.547Z,87.29
2023-03-21T13:53:01.522Z,87.90
2023-03-21T13:54:01.526Z,87.59
2023-03-21T13:55:01.511Z,87.18
2023-03-21T13:56:01.495Z,87.18
2023-03-21T13:57:01.680Z,86.68
2023-03-21T13:58:01.454Z,86.88
2023-03-21T13:59:01.458Z,87.04
2023-03-21T14:00:01.452Z,85.82
2023-03-21T14:01:01.460Z,86.43
2023-03-21T14:02:01.425Z,86.13
2023-03-21T14:03:01.392Z,86.13
2023-03-21T14:04:01.390Z,85.92
2023-03-21T14:05:05.944Z,85.61
2023-03-21T14:06:02.405Z,85.61
2023-03-21T14:07:01.383Z,84.50
2023-03-21T14:08:12.333Z,84.90
2023-03-21T14:09:02.321Z,85.00
2023-03-21T14:10:01.350Z,84.39
2023-03-21T14:11:01.305Z,84.29
2023-03-21T14:12:07.400Z,84.09
2023-03-21T14:13:02.280Z,84.15
2023-03-21T14:14:01.253Z,82.76
2023-03-21T14:15:06.926Z,83.03
2023-03-21T14:16:04.613Z,82.73
2023-03-21T14:17:01.221Z,80.99
2023-03-21T14:18:06.388Z,81.51
2023-03-21T14:19:02.215Z,81.30
2023-03-21T14:20:01.187Z,81.71
2023-03-21T14:21:02.163Z,81.51
2023-03-21T14:22:01.152Z,80.85
2023-03-21T14:23:01.154Z,80.35
2023-03-21T14:24:01.143Z,80.35
2023-03-21T14:25:01.144Z,79.84
2023-03-21T14:26:01.128Z,79.43
2023-03-21T14:27:01.099Z,77.91
2023-03-21T14:28:01.071Z,78.21
2023-03-21T14:29:01.240Z,77.81
2023-03-21T14:30:01.074Z,77.29
2023-03-21T14:31:01.131Z,77.50
2023-03-21T14:32:01.018Z,77.40
2023-03-21T14:33:01.015Z,77.50
2023-03-21T14:34:01.000Z,77.91
2023-03-21T14:35:00.995Z,78.21
2023-03-21T14:36:01.029Z,78.15
2023-03-21T14:37:00.969Z,78.96
2023-03-21T14:38:00.978Z,79.13
2023-03-21T14:39:00.931Z,79.43
2023-03-21T14:40:00.944Z,79.53
2023-03-21T14:41:00.901Z,79.63
2023-03-21T14:42:00.899Z,79.88
2023-03-21T14:43:00.893Z,80.35
2023-03-21T14:44:00.869Z,80.35
2023-03-21T14:45:00.878Z,79.98
2023-03-21T14:46:00.872Z,79.57
2023-03-21T14:47:00.847Z,79.84
2023-03-21T14:48:00.884Z,79.74
2023-03-21T14:49:00.800Z,79.57
2023-03-21T14:50:00.784Z,79.77
2023-03-21T14:51:00.792Z,79.27
2023-03-21T14:52:00.764Z,79.06
2023-03-21T14:53:00.760Z,79.37
2023-03-21T14:54:00.799Z,79.27
2023-03-21T14:55:00.727Z,79.27
2023-03-21T14:56:00.730Z,79.06
2023-03-21T14:57:00.698Z,78.41
2023-03-21T14:58:00.695Z,78.52
2023-03-21T14:59:00.669Z,78.17
2023-03-21T15:00:00.658Z,77.67
2023-03-21T15:01:00.648Z,77.70
2023-03-21T15:02:00.667Z,78.01
2023-03-21T15:03:00.753Z,78.52
2023-03-21T15:04:00.761Z,78.25
2023-03-21T15:05:00.647Z,79.27
2023-03-21T15:06:00.601Z,79.27
2023-03-21T15:07:00.568Z,79.37
2023-03-21T15:08:00.558Z,78.96
2023-03-21T15:09:00.544Z,79.00
2023-03-21T15:10:00.553Z,79.20
2023-03-21T15:11:08.413Z,79.91
2023-03-21T15:12:01.498Z,79.61
2023-03-21T15:13:00.522Z,79.41
2023-03-21T15:14:00.470Z,79.91
2023-03-21T15:15:00.460Z,80.11
2023-03-21T15:16:00.510Z,79.64
2023-03-21T15:17:00.433Z,79.75
2023-03-21T15:18:00.420Z,79.85
2023-03-21T15:19:00.407Z,80.05
2023-03-21T15:20:00.401Z,79.95
2023-03-21T15:21:00.387Z,80.97
2023-03-21T15:22:00.357Z,80.77
2023-03-21T15:23:00.358Z,80.56
2023-03-21T15:24:00.339Z,80.60
2023-03-21T15:25:00.330Z,81.01
2023-03-21T15:26:00.325Z,80.60
2023-03-21T15:27:00.305Z,81.01
2023-03-21T15:28:00.299Z,81.01
2023-03-21T15:29:00.278Z,80.70
2023-03-21T15:30:07.389Z,80.50
2023-03-21T15:31:00.309Z,80.16
2023-03-21T15:32:00.285Z,79.95
2023-03-21T15:33:00.219Z,80.16
2023-03-21T15:34:00.206Z,80.16
2023-03-21T15:35:00.205Z,80.36
2023-03-21T15:36:00.296Z,80.46
2023-03-21T15:37:00.166Z,80.56
2023-03-21T15:38:00.159Z,80.56
2023-03-21T15:39:00.154Z,80.36
2023-03-21T15:40:00.137Z,79.95
2023-03-21T15:41:00.137Z,79.95
2023-03-21T15:42:00.113Z,80.26
2023-03-21T15:43:00.140Z,80.36
2023-03-21T15:44:00.113Z,80.16
2023-03-21T15:45:00.102Z,79.91
2023-03-21T15:46:00.096Z,79.91
2023-03-21T15:47:00.088Z,79.47
2023-03-21T15:48:00.053Z,78.41
2023-03-21T15:49:00.017Z,77.40
2023-03-21T15:49:59.997Z,76.04
2023-03-21T15:51:00.006Z,74.82
2023-03-21T15:51:59.978Z,72.99
2023-03-21T15:53:00.000Z,71.77
2023-03-21T15:53:59.946Z,70.93
2023-03-21T15:54:59.945Z,71.70
2023-03-21T15:55:59.925Z,71.73
2023-03-21T15:56:59.927Z,70.49
2023-03-21T15:57:59.901Z,68.37
2023-03-21T15:58:59.897Z,66.31
2023-03-21T15:59:59.865Z,65.88
2023-03-21T16:00:59.891Z,64.84
2023-03-21T16:01:59.892Z,65.17
2023-03-21T16:02:59.887Z,65.91
2023-03-21T16:03:59.819Z,66.41
2023-03-21T16:04:59.828Z,65.91
2023-03-21T16:05:59.785Z,66.01
2023-03-21T16:06:59.798Z,65.24
2023-03-21T16:07:59.756Z,64.53
2023-03-21T16:08:59.757Z,64.97
2023-03-21T16:09:59.738Z,65.03
2023-03-21T16:10:59.736Z,67.11
2023-03-21T16:11:59.728Z,67.11
2023-03-21T16:12:59.696Z,66.44
2023-03-21T16:13:59.685Z,65.57
2023-03-21T16:14:59.676Z,65.27
2023-03-21T16:15:59.689Z,64.61
2023-03-21T16:16:59.656Z,64.87
2023-03-21T16:17:59.644Z,65.50
2023-03-21T16:18:59.626Z,68.12
2023-03-21T16:19:59.609Z,70.62
2023-03-21T16:20:59.597Z,70.92
2023-03-21T16:21:59.585Z,70.15
2023-03-21T16:22:59.575Z,69.51
2023-03-21T16:23:59.556Z,69.44
2023-03-21T16:24:59.547Z,69.41
2023-03-21T16:25:59.525Z,68.70
2023-03-21T16:26:59.526Z,69.54
2023-03-21T16:27:59.498Z,70.11
2023-03-21T16:28:59.486Z,70.92
2023-03-21T16:29:59.485Z,70.72
2023-03-21T16:30:59.468Z,72.01
2023-03-21T16:31:59.489Z,73.26
2023-03-21T16:32:59.437Z,73.77
2023-03-21T16:33:59.435Z,74.41
2023-03-21T16:34:59.408Z,74.65
2023-03-21T16:35:59.412Z,75.06
2023-03-21T16:36:59.401Z,75.16
2023-03-21T16:37:59.376Z,75.57
2023-03-21T16:38:59.356Z,76.21
2023-03-21T16:39:59.374Z,76.21
2023-03-21T16:40:59.335Z,75.91
2023-03-21T16:41:59.339Z,76.11
2023-03-21T16:42:59.310Z,76.21
2023-03-21T16:43:59.296Z,76.65
2023-03-21T16:44:59.286Z,76.96
2023-03-21T16:45:59.320Z,77.03
2023-03-21T16:47:01.939Z,76.42
2023-03-21T16:47:59.338Z,76.11
2023-03-21T16:48:59.227Z,76.76
2023-03-21T16:49:59.218Z,76.96
2023-03-21T16:50:59.208Z,77.17
2023-03-21T16:51:59.217Z,77.47
2023-03-21T16:52:59.184Z,77.67
2023-03-21T16:53:59.172Z,77.37
2023-03-21T16:54:59.147Z,77.67
2023-03-21T16:55:59.148Z,77.98
2023-03-21T16:56:59.165Z,77.98
2023-03-21T16:57:59.117Z,78.02
2023-03-21T16:58:59.097Z,78.22
2023-03-21T16:59:59.086Z,78.42
2023-03-21T17:00:59.101Z,78.53
2023-03-21T17:01:59.078Z,78.42
2023-03-21T17:02:59.080Z,78.42
2023-03-21T17:03:59.055Z,78.42
2023-03-21T17:04:59.059Z,78.63
2023-03-21T17:05:59.017Z,78.53
2023-03-21T17:06:59.005Z,78.83
2023-03-21T17:07:58.986Z,78.93
2023-03-21T17:08:58.975Z,78.93
2023-03-21T17:09:59.040Z,78.93
2023-03-21T17:10:58.948Z,78.93
2023-03-21T17:11:58.956Z,79.03
2023-03-21T17:12:58.924Z,79.24
2023-03-21T17:13:58.920Z,79.14
2023-03-21T17:14:58.891Z,79.24
2023-03-21T17:15:58.886Z,79.44
2023-03-21T17:16:58.930Z,79.24
2023-03-21T17:17:58.861Z,79.14
2023-03-21T17:18:58.837Z,79.24
2023-03-21T17:19:58.897Z,79.34
2023-03-21T17:20:58.821Z,79.44
2023-03-21T17:21:58.834Z,79.34
2023-03-21T17:22:58.787Z,79.44
2023-03-21T17:23:58.798Z,79.64
2023-03-21T17:24:58.762Z,79.68
2023-03-21T17:25:58.753Z,79.89
2023-03-21T17:26:58.739Z,80.09
2023-03-21T17:27:58.725Z,80.09
2023-03-21T17:28:58.706Z,80.19
2023-03-21T17:29:58.953Z,80.29
2023-03-21T17:30:58.698Z,80.29
2023-03-21T17:31:58.708Z,80.40
2023-03-21T17:32:58.665Z,80.40
2023-03-21T17:33:58.654Z,80.40
2023-03-21T17:34:58.637Z,80.19
2023-03-21T17:35:58.731Z,79.99
2023-03-21T17:36:58.605Z,80.29
2023-03-21T17:37:58.763Z,80.40
2023-03-21T17:38:58.571Z,80.60
2023-03-21T17:39:58.624Z,80.60
2023-03-21T17:40:58.553Z,80.60
2023-03-21T17:41:58.550Z,80.50
2023-03-21T17:42:58.530Z,80.50
2023-03-21T17:43:58.511Z,80.70
2023-03-21T17:44:58.502Z,80.80
2023-03-21T17:45:58.536Z,80.70
2023-03-21T17:46:58.485Z,80.91
2023-03-21T17:47:58.501Z,80.80
2023-03-21T17:48:58.452Z,81.01
2023-03-21T17:49:58.456Z,81.04
2023-03-21T17:50:58.426Z,80.84
2023-03-21T17:51:58.411Z,81.01
2023-03-21T17:52:58.402Z,80.80
2023-03-21T17:53:58.382Z,80.91
2023-03-21T17:54:58.376Z,81.01
2023-03-21T17:55:58.360Z,81.21
2023-03-21T17:56:58.352Z,81.35
2023-03-21T17:57:58.344Z,81.15
2023-03-21T17:58:58.320Z,81.15
2023-03-21T17:59:58.348Z,81.35
2023-03-21T18:00:58.290Z,81.45
2023-03-21T18:01:58.302Z,81.45
2023-03-21T18:02:58.283Z,81.35
2023-03-21T18:03:58.250Z,81.35
2023-03-21T18:04:58.257Z,81.52
2023-03-21T18:05:58.230Z,81.45
2023-03-21T18:06:58.212Z,81.56
2023-03-21T18:08:13.636Z,81.66